createdAt,value
2019-02-04T00:01:58.478Z,1.10
2019-02-04T00:04:26.110Z,1.00
2019-02-04T00:06:53.748Z,0.90
2019-02-04T00:09:21.374Z,0.90
2019-02-04T00:11:49.476Z,0.80
2019-02-04T00:14:17.107Z,0.70
2019-02-04T00:16:44.735Z,0.60
2019-02-04T00:19:12.379Z,0.50
2019-02-04T00:24:07.385Z,0.40
2019-02-04T00:26:35.006Z,0.30
2019-02-04T00:31:30.414Z,0.10
2019-02-04T00:33:59.050Z,0.10
2019-02-04T00:36:26.674Z,0.00
2019-02-04T00:38:54.320Z,-0.10
2019-02-04T00:41:21.980Z,-0.20
2019-02-04T00:43:49.630Z,-0.20
2019-02-04T00:46:17.323Z,-0.30
2019-02-04T00:48:44.970Z,-0.30
2019-02-04T00:51:12.612Z,-0.50
2019-02-04T00:53:40.254Z,-0.50
2019-02-04T00:56:07.957Z,-0.50
2019-02-04T00:58:35.598Z,-0.50
2019-02-04T01:01:03.402Z,-0.50
2019-02-04T01:03:31.042Z,-0.50
2019-02-04T01:05:58.698Z,-0.40
2019-02-04T01:08:26.352Z,-0.30
2019-02-04T01:10:54.055Z,-0.30
2019-02-04T01:13:21.690Z,-0.30
2019-02-04T01:15:49.346Z,-0.40
2019-02-04T01:18:17.479Z,-0.40
2019-02-04T01:20:45.122Z,-0.30
2019-02-04T01:23:12.759Z,-0.30
2019-02-04T01:25:40.407Z,-0.30
2019-02-04T01:28:08.040Z,-0.40
2019-02-04T01:30:35.691Z,-0.50
2019-02-04T01:33:03.315Z,-0.50
2019-02-04T01:35:30.978Z,-0.50
2019-02-04T01:37:58.638Z,-0.50
2019-02-04T01:40:26.759Z,-0.50
2019-02-04T01:42:55.162Z,-0.60
2019-02-04T01:45:23.088Z,-0.60
2019-02-04T01:47:50.727Z,-0.60
2019-02-04T01:50:19.710Z,-0.60
2019-02-04T01:52:48.366Z,-0.70
2019-02-04T01:55:16.006Z,-0.60
2019-02-04T01:57:44.627Z,-0.70
2019-02-04T02:00:13.805Z,-0.70
2019-02-04T02:02:41.442Z,-0.80
2019-02-04T02:05:09.287Z,-0.70
2019-02-04T02:07:36.918Z,-0.80
2019-02-04T02:10:06.094Z,-0.70
2019-02-04T02:12:33.744Z,-0.70
2019-02-04T02:15:01.374Z,-0.70
2019-02-04T02:17:29.018Z,-0.70
2019-02-04T02:19:56.650Z,-0.70
2019-02-04T02:22:24.475Z,-0.70
2019-02-04T02:24:52.111Z,-0.60
2019-02-04T02:27:19.755Z,-0.60
2019-02-04T02:29:47.388Z,-0.60
2019-02-04T02:32:15.031Z,-0.60
2019-02-04T02:34:42.666Z,-0.60
2019-02-04T02:37:10.310Z,-0.60
2019-02-04T02:39:37.954Z,-0.60
2019-02-04T02:42:05.615Z,-0.60
2019-02-04T02:44:33.254Z,-0.60
2019-02-04T02:47:00.901Z,-0.60
2019-02-04T02:49:28.530Z,-0.60
2019-02-04T02:51:56.179Z,-0.70
2019-02-04T02:54:23.810Z,-0.80
2019-02-04T02:56:51.454Z,-0.80
2019-02-04T02:59:19.100Z,-0.90
2019-02-04T03:01:46.738Z,-1.00
2019-02-04T03:04:14.370Z,-1.00
2019-02-04T03:06:42.014Z,-1.10
2019-02-04T03:09:09.646Z,-1.10
2019-02-04T03:11:37.566Z,-1.10
2019-02-04T03:14:05.201Z,-1.20
2019-02-04T03:16:32.835Z,-1.20
2019-02-04T03:19:00.478Z,-1.30
2019-02-04T03:21:28.117Z,-1.40
2019-02-04T03:23:55.764Z,-1.40
2019-02-04T03:26:23.391Z,-1.50
2019-02-04T03:28:51.138Z,-1.60
2019-02-04T03:31:18.884Z,-1.70
2019-02-04T03:33:46.539Z,-1.70
2019-02-04T03:36:14.170Z,-1.80
2019-02-04T03:38:41.850Z,-1.80
2019-02-04T03:41:09.479Z,-1.80
2019-02-04T03:43:39.128Z,-1.90
2019-02-04T03:46:06.754Z,-2.00
2019-02-04T03:48:34.395Z,-2.00
2019-02-04T03:51:02.026Z,-2.10
2019-02-04T03:53:29.686Z,-2.10
2019-02-04T03:55:57.322Z,-2.10
2019-02-04T03:58:24.963Z,-1.90
2019-02-04T04:00:52.767Z,-1.80
2019-02-04T04:03:20.481Z,-1.90
2019-02-04T04:05:48.131Z,-1.90
2019-02-04T04:08:15.814Z,-1.90
2019-02-04T04:10:43.459Z,-2.00
2019-02-04T04:13:11.090Z,-2.10
2019-02-04T04:15:38.735Z,-2.10
2019-02-04T04:18:15.525Z,-2.10
2019-02-04T04:20:35.732Z,-2.20
2019-02-04T04:23:03.367Z,-2.20
2019-02-04T04:25:31.946Z,-2.30
2019-02-04T04:27:59.747Z,-2.30
2019-02-04T04:30:28.262Z,-2.40
2019-02-04T04:32:56.343Z,-2.40
2019-02-04T04:35:23.983Z,-2.40
2019-02-04T04:37:51.887Z,-2.40
2019-02-04T04:40:19.596Z,-2.40
2019-02-04T04:42:48.206Z,-2.40
2019-02-04T04:45:20.477Z,-2.50
2019-02-04T04:47:48.687Z,-2.40
2019-02-04T04:50:16.334Z,-2.30
2019-02-04T04:52:49.802Z,-2.30
2019-02-04T04:55:24.269Z,-2.40
2019-02-04T04:57:52.047Z,-2.40
2019-02-04T05:00:21.066Z,-2.30
2019-02-04T05:02:48.695Z,-2.40
2019-02-04T05:05:16.414Z,-2.50
2019-02-04T05:07:44.143Z,-2.50
2019-02-04T05:10:21.298Z,-2.50
2019-02-04T05:12:48.935Z,-2.60
2019-02-04T05:15:18.101Z,-2.60
2019-02-04T05:17:45.804Z,-2.70
2019-02-04T05:20:15.118Z,-2.70
2019-02-04T05:22:43.669Z,-2.70
2019-02-04T05:25:11.387Z,-2.70
2019-02-04T05:27:39.018Z,-2.80
2019-02-04T05:30:08.678Z,-2.80
2019-02-04T05:32:38.373Z,-2.80
2019-02-04T05:35:06.106Z,-2.80
2019-02-04T05:37:33.740Z,-3.00
2019-02-04T05:40:01.371Z,-3.10
2019-02-04T05:42:29.979Z,-3.20
2019-02-04T05:44:57.615Z,-3.10
2019-02-04T05:47:25.259Z,-3.20
2019-02-04T05:49:52.890Z,-3.20
2019-02-04T05:52:20.567Z,-3.20
2019-02-04T05:54:48.194Z,-3.10
2019-02-04T05:57:15.842Z,-3.10
2019-02-04T05:59:43.478Z,-3.10
2019-02-04T06:02:11.194Z,-3.10
2019-02-04T06:04:38.887Z,-3.10
2019-02-04T06:07:06.559Z,-3.10
2019-02-04T06:09:34.187Z,-3.10
2019-02-04T06:12:01.835Z,-3.10
2019-02-04T06:14:29.546Z,-3.10
2019-02-04T06:16:57.194Z,-3.10
2019-02-04T06:19:25.107Z,-3.20
2019-02-04T06:21:52.750Z,-3.30
2019-02-04T06:24:26.368Z,-3.40
2019-02-04T06:26:54.012Z,-3.50
2019-02-04T06:29:21.645Z,-3.50
2019-02-04T06:31:49.286Z,-3.50
2019-02-04T06:34:17.364Z,-3.50
2019-02-04T06:36:45.018Z,-3.50
2019-02-04T06:39:12.660Z,-3.50
2019-02-04T06:41:40.293Z,-3.50
2019-02-04T06:44:08.894Z,-3.50
2019-02-04T06:46:36.543Z,-3.50
2019-02-04T06:49:12.025Z,-3.50
2019-02-04T06:51:33.614Z,-3.60
2019-02-04T06:54:01.259Z,-3.60
2019-02-04T06:56:28.907Z,-3.60
2019-02-04T06:58:56.539Z,-3.60
2019-02-04T07:01:24.175Z,-3.60
2019-02-04T07:03:56.019Z,-3.60
2019-02-04T07:06:24.135Z,-3.60
2019-02-04T07:08:51.779Z,-3.60
2019-02-04T07:11:19.411Z,-3.60
2019-02-04T07:13:48.023Z,-3.50
2019-02-04T07:16:15.663Z,-3.50
2019-02-04T07:18:43.301Z,-3.40
2019-02-04T07:21:10.931Z,-3.40
2019-02-04T07:23:39.050Z,-3.40
2019-02-04T07:26:06.682Z,-3.40
2019-02-04T07:28:34.331Z,-3.60
2019-02-04T07:31:02.058Z,-3.60
2019-02-04T07:33:35.739Z,-3.50
2019-02-04T07:36:03.651Z,-3.50
2019-02-04T07:38:31.371Z,-3.40
2019-02-04T07:40:59.074Z,-3.30
2019-02-04T07:43:26.737Z,-3.20
2019-02-04T07:45:54.427Z,-3.10
2019-02-04T07:48:22.064Z,-3.00
2019-02-04T07:50:49.714Z,-2.90
2019-02-04T07:53:17.451Z,-2.80
2019-02-04T07:55:45.094Z,-2.80
2019-02-04T07:58:12.727Z,-2.70
2019-02-04T08:00:40.369Z,-2.70
2019-02-04T08:03:08.003Z,-2.50
2019-02-04T08:05:35.650Z,-2.30
2019-02-04T08:08:03.280Z,-2.20
2019-02-04T08:10:30.928Z,-2.20
2019-02-04T08:13:01.410Z,-2.00
2019-02-04T08:15:29.671Z,-2.00
2019-02-04T08:17:57.392Z,-1.90
2019-02-04T08:20:25.490Z,-1.90
2019-02-04T08:22:53.138Z,-1.80
2019-02-04T08:25:20.844Z,-1.70
2019-02-04T08:27:48.495Z,-1.60
2019-02-04T08:30:18.038Z,-1.60
2019-02-04T08:32:47.676Z,-1.40
2019-02-04T08:35:15.374Z,-1.20
2019-02-04T08:37:43.025Z,-1.00
2019-02-04T08:40:12.271Z,-0.80
2019-02-04T08:42:39.990Z,-0.60
2019-02-04T08:45:08.691Z,-0.60
2019-02-04T08:47:36.402Z,-0.50
2019-02-04T08:52:31.406Z,-0.20
2019-02-04T08:54:59.035Z,0.00
2019-02-04T08:57:26.694Z,0.30
2019-02-04T08:59:54.917Z,0.50
2019-02-04T09:02:22.686Z,0.60
2019-02-04T09:04:50.614Z,0.60
2019-02-04T09:07:18.238Z,0.80
2019-02-04T09:09:45.883Z,0.90
2019-02-04T09:12:13.882Z,0.90
2019-02-04T09:14:41.523Z,1.10
2019-02-04T09:17:09.151Z,1.20
2019-02-04T09:19:36.792Z,1.40
2019-02-04T09:22:04.796Z,1.60
2019-02-04T09:24:32.438Z,1.60
2019-02-04T09:27:00.069Z,1.80
2019-02-04T09:29:27.712Z,1.90
2019-02-04T09:31:55.361Z,2.10
2019-02-04T09:36:51.403Z,2.30
2019-02-04T09:39:19.519Z,2.20
2019-02-04T09:41:47.146Z,2.20
2019-02-04T09:44:14.785Z,2.40
2019-02-04T09:46:42.430Z,2.50
2019-02-04T09:49:10.131Z,2.60
2019-02-04T09:51:37.758Z,2.80
2019-02-04T09:54:05.468Z,2.80
2019-02-04T09:56:33.466Z,2.80
2019-02-04T09:59:01.118Z,2.90
2019-02-04T10:01:28.748Z,2.90
2019-02-04T10:03:56.379Z,3.00
2019-02-04T10:06:24.019Z,3.30
2019-02-04T10:08:51.650Z,3.60
2019-02-04T10:11:19.299Z,3.60
2019-02-04T10:13:47.105Z,3.80
2019-02-04T10:16:14.752Z,4.00
2019-02-04T10:18:42.375Z,4.40
2019-02-04T10:23:39.443Z,4.60
2019-02-04T10:31:01.913Z,5.40
2019-02-04T10:33:29.593Z,5.50
2019-02-04T10:35:57.301Z,5.40
2019-02-04T10:38:25.052Z,5.40
2019-02-04T10:40:52.730Z,5.60
2019-02-04T10:43:22.355Z,5.60
2019-02-04T10:45:50.274Z,5.50
2019-02-04T10:48:17.923Z,5.20
2019-02-04T10:50:47.034Z,4.50
2019-02-04T10:53:15.026Z,5.10
2019-02-04T10:55:42.776Z,5.30
2019-02-04T10:58:11.590Z,5.50
2019-02-04T11:00:39.322Z,5.90
2019-02-04T11:03:07.233Z,6.40
2019-02-04T11:10:34.029Z,7.20
2019-02-04T11:13:14.627Z,7.20
2019-02-04T11:18:10.475Z,6.50
2019-02-04T11:20:38.262Z,7.20
2019-02-04T11:23:07.479Z,7.00
2019-02-04T11:25:35.221Z,7.20
2019-02-04T11:28:02.946Z,7.40
2019-02-04T11:30:31.931Z,7.90
2019-02-04T11:32:59.593Z,7.70
2019-02-04T11:35:27.353Z,8.20
2019-02-04T11:40:26.801Z,9.40
2019-02-04T11:43:00.255Z,9.40
2019-02-04T11:45:28.431Z,9.00
2019-02-04T11:47:56.282Z,9.80
2019-02-04T11:50:23.959Z,9.60
2019-02-04T11:57:46.486Z,7.70
2019-02-04T12:02:41.571Z,8.30
2019-02-04T12:05:10.971Z,8.60
2019-02-04T12:07:38.611Z,9.10
2019-02-04T12:10:07.792Z,8.20
2019-02-04T12:12:41.305Z,8.40
2019-02-04T12:15:10.471Z,7.30
2019-02-04T12:20:07.729Z,7.00
2019-02-04T12:22:39.790Z,7.60
2019-02-04T12:25:08.887Z,7.40
2019-02-04T12:27:36.529Z,8.10
2019-02-04T12:30:05.705Z,9.40
2019-02-04T12:32:42.550Z,9.00
2019-02-04T12:35:11.150Z,9.60
2019-02-04T12:37:38.859Z,9.10
2019-02-04T12:40:08.037Z,9.50
2019-02-04T12:42:35.702Z,9.70
2019-02-04T12:45:04.599Z,9.00
2019-02-04T12:47:32.227Z,7.70
2019-02-04T12:49:59.862Z,6.90
2019-02-04T12:52:27.499Z,6.70
2019-02-04T12:54:55.146Z,6.70
2019-02-04T12:57:22.797Z,6.20
2019-02-04T13:02:17.835Z,8.70
2019-02-04T13:04:45.479Z,9.90
2019-02-04T13:07:13.115Z,10.70
2019-02-04T13:09:40.751Z,9.70
2019-02-04T13:12:09.131Z,10.20
2019-02-04T13:14:36.918Z,10.80
2019-02-04T13:19:31.925Z,10.80
2019-02-04T13:21:59.554Z,10.10
2019-02-04T13:26:54.555Z,10.20
2019-02-04T13:29:22.194Z,10.80
2019-02-04T13:31:49.827Z,10.60
2019-02-04T13:34:26.383Z,10.30
2019-02-04T13:36:54.067Z,9.70
2019-02-04T13:39:21.736Z,9.60
2019-02-04T13:41:49.366Z,9.10
2019-02-04T13:46:45.294Z,8.90
2019-02-04T13:49:12.959Z,9.30
2019-02-04T13:51:40.681Z,8.70
2019-02-04T13:54:08.296Z,8.70
2019-02-04T13:56:35.943Z,8.90
2019-02-04T13:59:03.640Z,8.30
2019-02-04T14:01:31.283Z,8.60
2019-02-04T14:03:58.910Z,9.10
2019-02-04T14:06:26.558Z,9.00
2019-02-04T14:08:54.194Z,9.00
2019-02-04T14:11:21.843Z,9.30
2019-02-04T14:13:49.471Z,9.00
2019-02-04T14:16:17.115Z,9.00
2019-02-04T14:18:44.743Z,8.00
2019-02-04T14:21:12.396Z,8.20
2019-02-04T14:26:07.634Z,8.90
2019-02-04T14:28:35.263Z,9.20
2019-02-04T14:31:02.906Z,8.80
2019-02-04T14:33:39.656Z,8.30
2019-02-04T14:36:07.366Z,8.00
2019-02-04T14:38:35.062Z,7.70
2019-02-04T14:41:02.713Z,8.00
2019-02-04T14:43:31.023Z,8.40
2019-02-04T14:46:15.278Z,8.00
2019-02-04T14:48:59.679Z,7.40
2019-02-04T14:51:34.901Z,7.20
2019-02-04T14:54:23.260Z,7.10
2019-02-04T14:56:58.250Z,7.20
2019-02-04T14:59:26.850Z,7.60
2019-02-04T15:01:58.924Z,7.20
2019-02-04T15:07:10.773Z,8.30
2019-02-04T15:09:39.938Z,8.70
2019-02-04T15:12:15.358Z,8.30
2019-02-04T15:14:47.475Z,8.30
2019-02-04T15:17:16.655Z,7.50
2019-02-04T15:19:48.833Z,7.10
2019-02-04T15:22:32.799Z,6.40
2019-02-04T15:25:08.600Z,6.70
2019-02-04T15:27:38.264Z,6.80
2019-02-04T15:30:10.611Z,7.00
2019-02-04T15:32:40.782Z,6.80
2019-02-04T15:35:09.949Z,6.60
2019-02-04T15:37:55.746Z,6.50
2019-02-04T15:40:34.167Z,6.50
2019-02-04T15:43:11.174Z,7.10
2019-02-04T15:45:40.347Z,7.30
2019-02-04T15:48:08.427Z,7.20
2019-02-04T15:50:43.830Z,7.00
2019-02-04T15:53:11.477Z,6.80
2019-02-04T15:55:40.060Z,6.20
2019-02-04T15:58:07.894Z,5.60
2019-02-04T16:00:35.531Z,5.00
2019-02-04T16:03:03.446Z,4.60
2019-02-04T16:05:31.074Z,4.20
2019-02-04T16:07:58.719Z,3.90
2019-02-04T16:10:26.347Z,3.60
2019-02-04T16:12:53.999Z,3.50
2019-02-04T16:15:21.698Z,3.30
2019-02-04T16:17:49.402Z,3.10
2019-02-04T16:20:19.048Z,3.00
2019-02-04T16:22:58.008Z,2.80
2019-02-04T16:25:16.127Z,2.70
2019-02-04T16:27:43.767Z,2.70
2019-02-04T16:30:12.943Z,2.50
2019-02-04T16:32:40.606Z,2.50
2019-02-04T16:37:35.611Z,2.30
2019-02-04T16:44:58.163Z,1.70
2019-02-04T16:47:25.795Z,1.70
2019-02-04T16:49:53.430Z,1.70
2019-02-04T16:52:21.063Z,1.70
2019-02-04T16:54:48.703Z,1.70
2019-02-04T16:57:16.334Z,1.60
2019-02-04T17:02:11.351Z,1.50
2019-02-04T17:04:38.991Z,1.40
2019-02-04T17:07:06.899Z,1.30
2019-02-04T17:09:34.539Z,1.30
2019-02-04T17:12:02.173Z,1.20
2019-02-04T17:14:39.110Z,1.20
2019-02-04T17:17:06.742Z,1.10
2019-02-04T17:19:34.373Z,1.00
2019-02-04T17:22:02.019Z,1.00
2019-02-04T17:24:29.658Z,0.90
2019-02-04T17:26:57.322Z,0.90
2019-02-04T17:29:25.787Z,0.90
2019-02-04T17:31:53.427Z,0.80
2019-02-04T17:34:23.063Z,0.80
2019-02-04T17:36:50.703Z,0.80
2019-02-04T17:39:18.332Z,0.80
2019-02-04T17:41:46.354Z,0.70
2019-02-04T17:44:13.978Z,0.60
2019-02-04T17:46:41.620Z,0.60
2019-02-04T17:49:09.252Z,0.60
2019-02-04T17:54:05.155Z,0.50
2019-02-04T17:56:33.311Z,0.40
2019-02-04T17:59:01.314Z,0.40
2019-02-04T18:01:28.961Z,0.40
2019-02-04T18:03:56.620Z,0.40
2019-02-04T18:06:24.321Z,0.40
2019-02-04T18:08:52.077Z,0.40
2019-02-04T18:11:19.719Z,0.30
2019-02-04T18:13:47.428Z,0.30
2019-02-04T18:16:15.242Z,0.30
2019-02-04T18:18:42.872Z,0.30
2019-02-04T18:21:10.578Z,0.30
2019-02-04T18:23:45.655Z,0.30
2019-02-04T18:26:07.579Z,0.30
2019-02-04T18:28:35.582Z,0.20
2019-02-04T18:31:03.335Z,0.20
2019-02-04T18:33:31.426Z,0.20
2019-02-04T18:35:59.093Z,0.20
2019-02-04T18:38:26.737Z,0.10
2019-02-04T18:40:54.734Z,0.10
2019-02-04T18:43:22.378Z,0.10
2019-02-04T18:45:50.006Z,0.00
2019-02-04T18:48:17.646Z,0.00
2019-02-04T18:50:45.750Z,0.00
2019-02-04T18:53:13.391Z,0.00
2019-02-04T18:55:41.023Z,-0.10
2019-02-04T18:58:08.671Z,-0.10
2019-02-04T19:00:36.307Z,-0.20
2019-02-04T19:03:16.498Z,-0.20
2019-02-04T19:05:34.387Z,-0.20
2019-02-04T19:08:02.029Z,-0.20
2019-02-04T19:10:29.667Z,-0.20
2019-02-04T19:12:58.330Z,-0.20
2019-02-04T19:15:27.499Z,-0.20
2019-02-04T19:17:56.858Z,-0.30
2019-02-04T19:20:24.499Z,-0.30
2019-02-04T19:22:52.209Z,-0.30
2019-02-04T19:25:21.115Z,-0.30
2019-02-04T19:27:49.235Z,-0.40
2019-02-04T19:30:21.363Z,-0.40
2019-02-04T19:32:49.081Z,-0.40
2019-02-04T19:35:17.326Z,-0.40
2019-02-04T19:37:45.134Z,-0.40
2019-02-04T19:40:14.146Z,-0.40
2019-02-04T19:42:41.779Z,-0.50
2019-02-04T19:45:14.322Z,-0.50
2019-02-04T19:47:42.012Z,-0.50
2019-02-04T19:50:11.375Z,-0.50
2019-02-04T19:52:39.012Z,-0.50
2019-02-04T19:55:10.946Z,-0.50
2019-02-04T19:57:37.494Z,-0.50
2019-02-04T20:00:12.903Z,-0.50
2019-02-04T20:02:40.548Z,-0.50
2019-02-04T20:05:09.911Z,-0.50
2019-02-04T20:07:37.547Z,-0.50
2019-02-04T20:10:06.454Z,-0.50
2019-02-04T20:12:34.091Z,-0.50
2019-02-04T20:15:01.735Z,-0.60
2019-02-04T20:17:29.376Z,-0.60
2019-02-04T20:19:57.029Z,-0.60
2019-02-04T20:22:25.620Z,-0.60
2019-02-04T20:24:53.263Z,-0.60
2019-02-04T20:27:20.895Z,-0.60
2019-02-04T20:29:48.547Z,-0.60
2019-02-04T20:32:16.300Z,-0.60
2019-02-04T20:34:43.949Z,-0.60
2019-02-04T20:37:11.749Z,-0.60
2019-02-04T20:39:39.399Z,-0.70
2019-02-04T20:42:07.046Z,-0.70
2019-02-04T20:44:34.711Z,-0.80
2019-02-04T20:47:02.403Z,-0.80
2019-02-04T20:49:30.062Z,-0.80
2019-02-04T20:51:57.699Z,-0.80
2019-02-04T20:54:25.366Z,-0.90
2019-02-04T20:56:53.081Z,-0.80
2019-02-04T20:59:20.766Z,-0.80
2019-02-04T21:01:48.406Z,-0.90
2019-02-04T21:04:16.129Z,-0.90
2019-02-04T21:06:55.384Z,-0.90
2019-02-04T21:09:13.131Z,-0.90
2019-02-04T21:11:40.774Z,-1.00
2019-02-04T21:14:08.407Z,-1.00
2019-02-04T21:16:36.054Z,-1.00
2019-02-04T21:19:03.705Z,-1.10
2019-02-04T21:21:31.359Z,-1.10
2019-02-04T21:23:58.995Z,-1.10
2019-02-04T21:26:26.639Z,-1.20
2019-02-04T21:28:54.266Z,-1.20
2019-02-04T21:31:21.916Z,-1.30
2019-02-04T21:33:49.550Z,-1.30
2019-02-04T21:36:17.195Z,-1.30
2019-02-04T21:38:44.822Z,-1.30
2019-02-04T21:41:12.475Z,-1.20
2019-02-04T21:43:40.106Z,-1.20
2019-02-04T21:46:07.751Z,-1.20
2019-02-04T21:48:35.379Z,-1.20
2019-02-04T21:51:03.212Z,-1.10
2019-02-04T21:53:30.854Z,-1.10
2019-02-04T21:55:58.502Z,-1.00
2019-02-04T21:58:26.139Z,-1.00
2019-02-04T22:00:53.775Z,-1.00
2019-02-04T22:03:21.427Z,-1.10
2019-02-04T22:05:49.054Z,-1.00
2019-02-04T22:08:16.702Z,-1.00
2019-02-04T22:10:44.335Z,-1.10
2019-02-04T22:13:11.977Z,-1.10
2019-02-04T22:15:39.986Z,-1.10
2019-02-04T22:18:07.698Z,-1.10
2019-02-04T22:20:35.782Z,-1.00
2019-02-04T22:23:03.607Z,-1.00
2019-02-04T22:25:31.309Z,-1.10
2019-02-04T22:27:58.941Z,-1.00
2019-02-04T22:30:27.641Z,-1.00
2019-02-04T22:32:55.285Z,-1.10
2019-02-04T22:35:22.910Z,-1.00
2019-02-04T22:37:50.562Z,-1.00
2019-02-04T22:40:19.631Z,-1.00
2019-02-04T22:42:48.265Z,-1.20
2019-02-04T22:45:16.562Z,-1.20
2019-02-04T22:47:44.208Z,-1.20
2019-02-04T22:50:13.611Z,-1.20
2019-02-04T22:52:44.338Z,-1.20
2019-02-04T22:55:12.414Z,-1.20
2019-02-04T22:57:40.071Z,-1.20
2019-02-04T23:00:15.095Z,-1.30
2019-02-04T23:02:42.745Z,-1.30
2019-02-04T23:05:10.370Z,-1.30
2019-02-04T23:07:38.074Z,-1.40
2019-02-04T23:10:07.869Z,-1.40
2019-02-04T23:12:35.497Z,-1.50
2019-02-04T23:15:04.612Z,-1.50
2019-02-04T23:17:32.250Z,-1.50
2019-02-04T23:19:59.891Z,-1.50
2019-02-04T23:22:28.459Z,-1.40
2019-02-04T23:24:56.098Z,-1.40
2019-02-04T23:27:23.730Z,-1.40
2019-02-04T23:29:51.370Z,-1.50
2019-02-04T23:32:19.008Z,-1.50
2019-02-04T23:34:46.650Z,-1.50
2019-02-04T23:37:14.283Z,-1.60
2019-02-04T23:39:41.926Z,-1.60
2019-02-04T23:42:09.567Z,-1.60
2019-02-04T23:44:37.222Z,-1.60
2019-02-04T23:47:04.859Z,-1.60
2019-02-04T23:49:32.512Z,-1.70
2019-02-04T23:52:00.167Z,-1.70
2019-02-04T23:54:27.810Z,-1.80
2019-02-04T23:56:55.441Z,-1.80
2019-02-04T23:59:23.090Z,-1.80
